Time;durP1;ratioP1;P1;durP2;ratioP2;P2;SDS_P1;SDS_P2;PMS_P1;PMS_P2;Temp;Humidity;BMP_temperature;BMP_pressure;BME280_temperature;BME280_humidity;BME280_pressure;Samples;Min_cycle;Max_cycle;Signal;HPM_P1;HPM_P2
2024/03/21 00:02:13;;;;;;;3.47;2.45;;;;;;;12.82;58.89;97433.91;4988810;28;20127;-88
2024/03/21 00:04:38;;;;;;;2.10;1.90;;;;;;;12.89;58.95;97431.88;4998692;28;20511;-87
2024/03/21 00:07:04;;;;;;;2.30;1.90;;;;;;;12.94;58.51;97431.13;4987464;28;20493;-87
2024/03/21 00:09:30;;;;;;;2.80;1.92;;;;;;;12.92;57.35;97433.19;4999109;28;20026;-84
2024/03/21 00:11:55;;;;;;;3.20;2.17;;;;;;;12.77;58.02;97431.28;4965570;28;20478;-86
2024/03/21 00:14:21;;;;;;;3.20;1.90;;;;;;;12.74;57.60;97434.38;4991191;28;20038;-87
2024/03/21 00:16:47;;;;;;;4.05;2.33;;;;;;;12.75;58.02;97428.13;5004433;28;20040;-86
2024/03/21 00:19:13;;;;;;;2.63;2.08;;;;;;;12.63;57.83;97425.69;4997044;28;20040;-86
2024/03/21 00:21:39;;;;;;;3.47;2.22;;;;;;;12.50;58.90;97416.44;4994782;28;20390;-87
2024/03/21 00:24:05;;;;;;;3.85;2.47;;;;;;;12.48;58.63;97415.91;4993383;28;20201;-87
2024/03/21 00:26:30;;;;;;;2.78;2.05;;;;;;;12.48;59.41;97423.75;5006347;28;20080;-87
2024/03/21 00:28:56;;;;;;;1.90;1.70;;;;;;;12.46;59.09;97420.59;4993908;28;20196;-85
2024/03/21 00:31:21;;;;;;;2.92;1.90;;;;;;;12.45;58.31;97408.56;4984275;28;20120;-85
2024/03/21 00:33:49;;;;;;;3.28;2.10;;;;;;;12.53;58.46;97417.78;4998929;28;20033;-87
2024/03/21 00:36:15;;;;;;;2.88;2.15;;;;;;;12.69;58.18;97416.06;4997356;28;20033;-88
2024/03/21 00:38:40;;;;;;;2.03;1.73;;;;;;;12.82;57.83;97412.22;4982301;28;20497;-87
2024/03/21 00:41:06;;;;;;;3.42;2.05;;;;;;;12.93;57.40;97427.69;4996332;28;20043;-86
2024/03/21 00:43:31;;;;;;;2.50;2.00;;;;;;;12.85;57.84;97422.97;4972764;28;20029;-87
2024/03/21 00:45:57;;;;;;;3.15;2.10;;;;;;;12.83;57.68;97425.00;4998792;28;20037;-87
2024/03/21 00:48:22;;;;;;;2.65;1.90;;;;;;;12.81;57.64;97416.66;4986833;28;20045;-87
2024/03/21 00:50:48;;;;;;;2.45;2.25;;;;;;;12.68;57.13;97428.34;4992592;28;20478;-87
2024/03/21 00:53:13;;;;;;;3.58;2.40;;;;;;;12.42;58.89;97419.50;4980313;28;20076;-85
2024/03/21 00:55:39;;;;;;;2.40;1.90;;;;;;;12.39;58.65;97425.25;4979717;28;20418;-87
2024/03/21 00:58:04;;;;;;;2.95;2.03;;;;;;;12.33;59.07;97415.81;4990130;28;20529;-87
2024/03/21 01:00:30;;;;;;;2.42;2.22;;;;;;;12.42;59.71;97435.19;4973411;28;20025;-84
2024/03/21 01:02:56;;;;;;;3.20;2.25;;;;;;;12.39;60.49;97422.66;5004488;28;20376;-87
2024/03/21 01:05:21;;;;;;;2.50;2.10;;;;;;;12.42;60.01;97419.50;4978684;28;20092;-87
2024/03/21 01:07:47;;;;;;;2.35;2.15;;;;;;;12.50;60.25;97426.91;4978145;28;20034;-87
2024/03/21 01:10:13;;;;;;;1.63;1.52;;;;;;;12.50;59.44;97419.06;4968971;28;20026;-85
2024/03/21 01:12:38;;;;;;;2.42;1.90;;;;;;;12.62;59.05;97418.09;4989116;28;20029;-87
2024/03/21 01:15:04;;;;;;;11.65;1.80;;;;;;;12.69;57.64;97419.44;4989088;28;20485;-86
2024/03/21 01:17:29;;;;;;;2.33;1.70;;;;;;;12.72;58.23;97412.94;4970293;28;20033;-84
2024/03/21 01:19:55;;;;;;;2.42;1.73;;;;;;;12.75;57.74;97422.91;4983235;28;20045;-87
2024/03/21 01:22:20;;;;;;;3.22;2.03;;;;;;;12.73;57.28;97417.13;4980467;28;20470;-84
2024/03/21 01:24:46;;;;;;;2.50;1.83;;;;;;;12.72;57.32;97415.56;4989733;28;20481;-87
2024/03/21 01:27:11;;;;;;;4.47;1.98;;;;;;;12.70;58.33;97420.25;4971904;28;20048;-84
2024/03/21 01:29:36;;;;;;;3.53;2.17;;;;;;;12.66;57.38;97421.78;4969240;28;20033;-88
2024/03/21 01:32:02;;;;;;;2.30;2.03;;;;;;;12.61;58.38;97421.75;4978200;28;20076;-87
2024/03/21 01:34:30;;;;;;;3.40;1.90;;;;;;;12.53;59.02;97430.84;4986599;28;20501;-87
2024/03/21 01:36:57;;;;;;;2.53;1.60;;;;;;;12.50;58.87;97431.34;4974224;28;20064;-87
2024/03/21 01:39:23;;;;;;;2.45;1.88;;;;;;;12.42;58.57;97429.19;4999840;28;20042;-87
2024/03/21 01:41:48;;;;;;;2.35;1.65;;;;;;;12.35;59.52;97432.81;5020445;28;20057;-86
2024/03/21 01:44:16;;;;;;;4.30;1.90;;;;;;;12.26;59.55;97425.66;4964322;28;20076;-87
2024/03/21 01:46:41;;;;;;;4.45;2.03;;;;;;;12.21;61.04;97418.56;4967263;28;20196;-87
2024/03/21 01:49:09;;;;;;;2.92;1.98;;;;;;;12.28;60.64;97428.81;4971621;28;20140;-85
2024/03/21 01:51:34;;;;;;;2.05;1.70;;;;;;;12.27;60.43;97416.78;4984646;28;20061;-87
2024/03/21 01:54:00;;;;;;;1.90;1.67;;;;;;;12.27;60.67;97422.00;5000884;28;20061;-87
2024/03/21 01:56:25;;;;;;;2.17;1.73;;;;;;;12.22;59.91;97416.75;4973637;28;20068;-87
2024/03/21 01:58:50;;;;;;;2.50;1.77;;;;;;;12.21;60.01;97423.00;4965139;28;20039;-87
2024/03/21 02:01:29;;;;;;;1.70;1.50;;;;;;;12.28;59.80;97424.38;4987458;28;20060;-86
2024/03/21 02:03:56;;;;;;;2.55;1.50;;;;;;;12.21;59.77;97425.63;4986099;28;20064;-87
2024/03/21 02:06:23;;;;;;;2.17;1.70;;;;;;;12.17;60.34;97420.13;4971309;28;20342;-84
2024/03/21 02:08:50;;;;;;;2.08;1.30;;;;;;;12.15;60.62;97425.59;5005020;28;20063;-82
2024/03/21 02:11:15;;;;;;;2.13;1.50;;;;;;;12.15;59.81;97427.41;4973626;28;20029;-87
2024/03/21 02:13:41;;;;;;;1.80;1.60;;;;;;;12.07;59.40;97412.97;4989303;28;20044;-87
2024/03/21 02:16:06;;;;;;;1.77;1.40;;;;;;;12.21;58.89;97430.84;4985495;28;20037;-86
2024/03/21 02:18:32;;;;;;;2.20;1.25;;;;;;;12.20;59.24;97430.06;5002795;28;20409;-87
2024/03/21 02:20:57;;;;;;;1.80;1.60;;;;;;;12.20;59.42;97444.94;4986356;28;20025;-86
2024/03/21 02:23:23;;;;;;;1.50;1.40;;;;;;;12.19;59.51;97436.31;4969170;28;20033;-86
2024/03/21 02:25:48;;;;;;;2.35;1.20;;;;;;;12.17;59.92;97447.00;5009047;28;20121;-86
2024/03/21 02:28:14;;;;;;;2.25;1.85;;;;;;;12.21;59.67;97446.50;4990597;28;20036;-86
2024/03/21 02:30:39;;;;;;;2.28;1.50;;;;;;;12.33;59.53;97447.91;4987400;28;20041;-86
2024/03/21 02:33:05;;;;;;;2.00;1.60;;;;;;;12.40;59.37;97446.94;4991282;28;20140;-85
2024/03/21 02:35:31;;;;;;;1.65;1.38;;;;;;;12.50;59.25;97449.63;4972609;28;20038;-86
2024/03/21 02:37:57;;;;;;;3.35;1.80;;;;;;;12.57;59.08;97446.81;4977572;28;20127;-87
2024/03/21 02:40:22;;;;;;;2.13;1.52;;;;;;;12.52;58.69;97447.53;4981425;28;20435;-87
2024/03/21 02:42:48;;;;;;;2.30;1.40;;;;;;;12.48;59.47;97449.88;4978280;28;20034;-80
2024/03/21 02:45:13;;;;;;;2.28;1.50;;;;;;;12.52;59.46;97442.31;4986493;28;20436;-86
2024/03/21 02:47:39;;;;;;;2.22;1.80;;;;;;;12.59;59.35;97452.56;4979645;28;20071;-87
2024/03/21 02:50:05;;;;;;;2.15;1.80;;;;;;;12.64;59.04;97452.59;5009196;28;20030;-85
2024/03/21 02:52:30;;;;;;;3.08;1.92;;;;;;;12.55;58.26;97455.66;4966327;28;20498;-86
2024/03/21 02:54:56;;;;;;;2.03;1.58;;;;;;;12.41;59.39;97457.13;4972897;28;20026;-85
2024/03/21 02:57:21;;;;;;;1.35;1.25;;;;;;;12.25;59.94;97442.34;4989547;28;20049;-86
2024/03/21 02:59:46;;;;;;;1.75;1.52;;;;;;;12.28;59.73;97454.91;4982086;28;20087;-86
2024/03/21 03:02:13;;;;;;;2.42;1.52;;;;;;;12.22;60.25;97440.22;4978869;28;20025;-86
2024/03/21 03:04:39;;;;;;;1.80;1.63;;;;;;;12.20;59.68;97442.31;4993726;28;20107;-86
2024/03/21 03:07:04;;;;;;;1.75;1.58;;;;;;;12.23;60.64;97440.00;4963735;28;20030;-85
2024/03/21 03:09:30;;;;;;;2.35;1.70;;;;;;;12.27;60.77;97448.13;4975350;28;20067;-85
2024/03/21 03:11:55;;;;;;;2.33;1.63;;;;;;;12.25;60.56;97434.53;5011119;28;20399;-86
2024/03/21 03:14:20;;;;;;;1.73;1.40;;;;;;;12.31;60.50;97444.75;4972363;28;20040;-87
2024/03/21 03:16:46;;;;;;;3.67;2.10;;;;;;;12.26;60.05;97442.13;4987421;28;20037;-82
2024/03/21 03:19:11;;;;;;;2.05;1.83;;;;;;;12.24;60.14;97443.41;4988466;28;20443;-86
2024/03/21 03:21:37;;;;;;;1.90;1.58;;;;;;;12.35;59.46;97447.66;4991176;28;20034;-86
2024/03/21 03:24:02;;;;;;;3.47;1.92;;;;;;;12.38;58.79;97456.84;4971679;28;20085;-85
2024/03/21 03:26:28;;;;;;;2.53;1.90;;;;;;;12.29;58.31;97456.50;4988137;28;20034;-86
2024/03/21 03:28:53;;;;;;;2.72;1.70;;;;;;;12.23;58.41;97447.81;5026019;28;20033;-86
2024/03/21 03:31:19;;;;;;;2.72;1.80;;;;;;;12.21;58.79;97454.34;4978747;28;20226;-87
2024/03/21 03:36:30;;;;;;;2.72;1.63;;;;;;;12.26;57.48;97463.00;4996880;28;20046;-86
2024/03/21 03:38:55;;;;;;;2.80;1.70;;;;;;;12.26;57.97;97465.59;4992139;28;20036;-88
2024/03/21 03:41:20;;;;;;;5.65;1.90;;;;;;;12.22;57.62;97461.13;4983045;28;20691;-87
2024/03/21 03:43:46;;;;;;;2.15;1.73;;;;;;;12.09;58.68;97463.09;4977426;28;20124;-87
2024/03/21 03:46:11;;;;;;;2.72;2.47;;;;;;;11.87;58.67;97454.50;4988121;28;20040;-87
2024/03/21 03:48:37;;;;;;;3.22;2.10;;;;;;;11.71;59.19;97456.94;4976991;28;20568;-86
2024/03/21 03:51:03;;;;;;;2.30;1.88;;;;;;;11.72;59.22;97461.16;4978968;28;20025;-87
2024/03/21 03:53:28;;;;;;;3.50;1.90;;;;;;;11.71;59.28;97456.16;4977127;28;20041;-86
2024/03/21 03:55:54;;;;;;;4.93;1.83;;;;;;;11.73;58.78;97454.88;5003804;28;20044;-86
2024/03/21 03:58:20;;;;;;;2.80;1.75;;;;;;;11.66;59.05;97463.94;4974738;28;20128;-86
2024/03/21 04:00:54;;;;;;;2.05;1.85;;;;;;;11.51;60.05;97454.09;4971909;28;20084;-86
2024/03/21 04:03:19;;;;;;;1.70;1.40;;;;;;;11.48;60.02;97462.41;4981339;28;20584;-86
2024/03/21 04:05:54;;;;;;;2.15;1.60;;;;;;;11.52;60.12;97460.91;4992653;28;20120;-86
2024/03/21 04:08:19;;;;;;;3.03;1.50;;;;;;;11.40;59.93;97454.00;4988998;28;20038;-86
2024/03/21 04:10:45;;;;;;;1.83;1.38;;;;;;;11.40;60.88;97459.19;4971359;28;20036;-85
2024/03/21 04:13:11;;;;;;;2.38;1.33;;;;;;;11.47;60.06;97460.84;4986585;28;20076;-86
2024/03/21 04:15:37;;;;;;;1.35;1.13;;;;;;;11.50;60.70;97461.16;4984694;28;20295;-87
2024/03/21 04:18:03;;;;;;;1.85;1.75;;;;;;;11.61;60.45;97469.88;4968804;28;20025;-87
2024/03/21 04:20:28;;;;;;;2.47;1.42;;;;;;;11.74;60.18;97466.13;4972403;28;20026;-84
2024/03/21 04:22:56;;;;;;;2.55;1.77;;;;;;;11.85;59.42;97461.78;4988804;28;20055;-86
2024/03/21 04:25:21;;;;;;;1.80;1.42;;;;;;;11.86;58.78;97460.75;4991231;28;20116;-87
2024/03/21 04:27:47;;;;;;;2.80;1.60;;;;;;;11.91;58.25;97469.47;4986239;28;20039;-87
2024/03/21 04:30:12;;;;;;;2.58;1.75;;;;;;;11.92;58.70;97478.06;5000437;28;20417;-85
2024/03/21 04:32:38;;;;;;;2.72;1.70;;;;;;;11.79;58.58;97474.78;5003929;28;20041;-87
2024/03/21 04:35:03;;;;;;;2.63;1.80;;;;;;;11.66;58.67;97477.75;4988021;28;20030;-87
2024/03/21 04:37:29;;;;;;;3.17;2.15;;;;;;;11.57;57.20;97472.19;4989154;28;20072;-84
2024/03/21 04:39:54;;;;;;;1.92;1.50;;;;;;;11.45;57.46;97463.69;5003017;28;20061;-85
2024/03/21 04:42:20;;;;;;;3.10;1.80;;;;;;;11.33;57.90;97476.84;4987233;28;21278;-85
2024/03/21 04:44:45;;;;;;;1.63;1.50;;;;;;;11.08;58.86;97476.50;5002237;28;20420;-85
2024/03/21 04:47:11;;;;;;;2.63;1.70;;;;;;;10.95;59.20;97480.22;4986111;28;20026;-86
2024/03/21 04:49:37;;;;;;;2.28;1.73;;;;;;;10.90;59.84;97480.97;5000851;28;20067;-87
2024/03/21 04:52:03;;;;;;;1.95;1.70;;;;;;;10.91;59.83;97482.50;4983931;28;20042;-85
2024/03/21 04:54:29;;;;;;;2.28;1.88;;;;;;;10.96;60.67;97477.38;4976306;28;20045;-84
2024/03/21 04:56:56;;;;;;;2.08;1.75;;;;;;;10.83;60.70;97460.28;4971788;28;20061;-85
2024/03/21 04:59:25;;;;;;;2.80;2.05;;;;;;;10.90;61.23;97470.53;4987382;28;20037;-86
2024/03/21 05:01:51;;;;;;;4.78;2.17;;;;;;;10.98;61.41;97483.13;4988626;28;20124;-85
2024/03/21 05:04:17;;;;;;;2.55;1.80;;;;;;;10.98;61.86;97474.53;4960797;28;20042;-85
2024/03/21 05:06:42;;;;;;;4.50;1.80;;;;;;;11.07;60.98;97478.34;4969773;28;20599;-87
2024/03/21 05:09:08;;;;;;;2.50;1.90;;;;;;;11.11;61.06;97491.66;4970780;28;20080;-86
2024/03/21 05:11:34;;;;;;;3.28;1.88;;;;;;;11.08;61.21;97484.31;4985210;28;20116;-87
2024/03/21 05:13:59;;;;;;;2.92;1.73;;;;;;;11.10;61.66;97482.25;5006795;28;20116;-84
2024/03/21 05:16:28;;;;;;;3.45;2.03;;;;;;;11.08;61.78;97490.31;4967270;28;20080;-86
2024/03/21 05:18:53;;;;;;;3.03;2.53;;;;;;;11.08;62.40;97495.53;4967126;28;20052;-84
2024/03/21 05:21:19;;;;;;;3.67;2.13;;;;;;;11.16;61.82;97491.75;4981460;28;20033;-87
2024/03/21 05:23:44;;;;;;;3.90;2.17;;;;;;;11.16;62.23;97502.16;5003056;28;20021;-82
2024/03/21 05:26:09;;;;;;;2.95;1.90;;;;;;;11.17;61.76;97501.13;4966574;28;20556;-87
2024/03/21 05:28:35;;;;;;;2.28;1.67;;;;;;;11.14;62.04;97515.44;4989170;28;20123;-87
2024/03/21 05:31:17;;;;;;;2.72;1.92;;;;;;;11.32;61.95;97514.34;5002207;28;20053;-85
2024/03/21 05:33:42;;;;;;;2.40;2.03;;;;;;;11.32;61.58;97522.19;4990063;28;20482;-86
2024/03/21 05:36:07;;;;;;;2.53;2.30;;;;;;;11.29;61.44;97522.66;4989606;28;20266;-86
2024/03/21 05:38:33;;;;;;;3.40;2.00;;;;;;;11.27;61.87;97527.31;4975196;28;20033;-86
2024/03/21 05:40:58;;;;;;;3.78;2.00;;;;;;;11.41;61.87;97535.59;4974979;28;20425;-86
2024/03/21 05:43:23;;;;;;;4.18;2.63;;;;;;;11.42;62.70;97530.13;4989539;28;20585;-83
2024/03/21 05:45:49;;;;;;;2.88;1.88;;;;;;;11.51;62.47;97545.38;5003347;28;20084;-84
2024/03/21 05:48:14;;;;;;;3.30;2.10;;;;;;;11.52;62.59;97529.50;5004369;28;20087;-83
2024/03/21 05:50:43;;;;;;;3.13;1.90;;;;;;;11.67;62.24;97526.28;4981428;28;20449;-86
2024/03/21 05:53:09;;;;;;;2.40;2.08;;;;;;;11.66;62.11;97532.53;4992887;28;20041;-86
2024/03/21 05:55:35;;;;;;;2.40;2.17;;;;;;;11.72;62.17;97549.03;4990646;28;20037;-87
2024/03/21 05:58:00;;;;;;;3.40;2.75;;;;;;;11.77;62.20;97549.09;4989311;28;20060;-85
2024/03/21 06:00:26;;;;;;;4.90;2.78;;;;;;;11.75;61.58;97543.34;5005953;28;20113;-85
2024/03/21 06:02:51;;;;;;;2.78;2.42;;;;;;;11.83;61.00;97557.78;4980188;28;20264;-86
2024/03/21 06:05:18;;;;;;;3.30;2.35;;;;;;;11.79;59.79;97558.25;5004297;28;20508;-86
2024/03/21 06:07:46;;;;;;;2.97;2.22;;;;;;;11.77;60.69;97560.34;4972971;28;20034;-87
2024/03/21 06:10:11;;;;;;;2.63;2.15;;;;;;;11.83;60.62;97565.63;5012227;28;20548;-87
2024/03/21 06:12:37;;;;;;;5.93;2.95;;;;;;;11.85;60.80;97555.72;4993450;28;20128;-85
2024/03/21 06:15:03;;;;;;;6.57;4.03;;;;;;;11.98;62.45;97571.81;4988642;28;20147;-86
2024/03/21 06:17:29;;;;;;;6.47;3.90;;;;;;;12.13;62.45;97567.81;4976452;28;20695;-84
2024/03/21 06:19:54;;;;;;;5.93;4.13;;;;;;;12.29;62.36;97568.78;4970513;28;20441;-80
2024/03/21 06:22:19;;;;;;;6.18;3.90;;;;;;;12.38;61.88;97567.28;5004764;28;20026;-79
2024/03/21 06:24:45;;;;;;;6.68;4.10;;;;;;;12.50;61.89;97578.38;5016004;28;20034;-80
2024/03/21 06:27:10;;;;;;;4.93;4.32;;;;;;;12.50;61.25;97575.75;5006275;28;20072;-80
2024/03/21 06:29:36;;;;;;;5.07;3.95;;;;;;;12.53;60.66;97584.94;4988901;28;20064;-79
2024/03/21 06:32:01;;;;;;;5.15;3.40;;;;;;;12.54;60.12;97584.72;4987109;28;20029;-80
2024/03/21 06:34:27;;;;;;;4.38;3.42;;;;;;;12.39;61.02;97588.97;4973205;28;20515;-84
2024/03/21 06:36:52;;;;;;;6.47;3.70;;;;;;;12.44;60.30;97602.06;4973314;28;20117;-87
2024/03/21 06:39:19;;;;;;;5.47;3.72;;;;;;;12.34;61.30;97600.94;4986357;28;20449;-86
2024/03/21 06:41:45;;;;;;;6.03;3.67;;;;;;;12.35;61.73;97604.34;4988294;28;20179;-87
2024/03/21 06:44:10;;;;;;;5.65;4.43;;;;;;;12.41;61.94;97610.41;4989483;28;20116;-86
2024/03/21 06:46:38;;;;;;;7.07;4.40;;;;;;;12.38;62.07;97597.84;5002381;28;20039;-86
2024/03/21 06:49:07;;;;;;;8.85;6.18;;;;;;;12.41;61.76;97608.59;4972879;28;20083;-84
2024/03/21 06:51:32;;;;;;;6.95;5.20;;;;;;;12.36;62.03;97616.38;4989956;28;20160;-86
2024/03/21 06:53:58;;;;;;;9.40;5.75;;;;;;;12.36;63.43;97618.97;5002394;28;20113;-86
2024/03/21 06:56:23;;;;;;;8.00;6.05;;;;;;;12.36;62.50;97626.81;4975144;28;20339;-86
2024/03/21 06:58:49;;;;;;;7.53;5.20;;;;;;;12.44;62.55;97625.56;4975322;28;20044;-86
2024/03/21 07:01:16;;;;;;;7.53;5.22;;;;;;;12.61;62.40;97635.94;4990343;28;20034;-88
2024/03/21 07:03:42;;;;;;;6.25;4.57;;;;;;;12.65;61.19;97631.81;4989659;28;20131;-87
2024/03/21 07:06:07;;;;;;;7.93;5.55;;;;;;;12.70;61.32;97629.25;4970580;28;20061;-88
2024/03/21 07:08:33;;;;;;;8.60;5.88;;;;;;;12.86;61.68;97635.41;4981855;28;20037;-86
2024/03/21 07:11:01;;;;;;;7.43;5.70;;;;;;;12.97;62.09;97636.28;4984131;28;20536;-87
2024/03/21 07:13:26;;;;;;;9.00;6.65;;;;;;;13.13;61.84;97645.84;4986897;28;20033;-86
2024/03/21 07:15:52;;;;;;;9.25;5.53;;;;;;;13.16;62.10;97641.94;4972511;28;20029;-87
2024/03/21 07:18:17;;;;;;;7.43;5.18;;;;;;;13.14;61.58;97660.47;5001080;28;20315;-87
2024/03/21 07:20:42;;;;;;;7.00;5.05;;;;;;;13.19;62.39;97657.13;4989998;28;20056;-87
2024/03/21 07:23:08;;;;;;;9.82;5.68;;;;;;;13.24;61.50;97670.25;5004665;28;20039;-87
2024/03/21 07:25:35;;;;;;;7.18;5.68;;;;;;;13.37;62.11;97669.09;4975405;28;20029;-80
2024/03/21 07:28:01;;;;;;;7.20;5.68;;;;;;;13.47;61.20;97656.88;4987272;28;20116;-80
2024/03/21 07:30:26;;;;;;;6.65;5.63;;;;;;;13.81;61.27;97674.09;4985262;28;20526;-80
2024/03/21 07:32:52;;;;;;;7.93;5.55;;;;;;;14.03;61.39;97669.53;4989877;28;20068;-80
2024/03/21 07:35:17;;;;;;;7.85;6.25;;;;;;;14.22;60.42;97671.69;4987178;28;20033;-80
2024/03/21 07:37:43;;;;;;;10.57;6.15;;;;;;;14.39;59.90;97680.16;4984111;28;20037;-80
2024/03/21 07:40:08;;;;;;;9.38;6.55;;;;;;;14.49;60.33;97676.00;4970708;28;20034;-80
2024/03/21 07:42:34;;;;;;;9.05;6.35;;;;;;;14.71;59.14;97675.81;4973343;28;20038;-80
2024/03/21 07:45:01;;;;;;;6.68;5.80;;;;;;;14.85;58.74;97682.13;4991042;28;20393;-80
2024/03/21 07:47:27;;;;;;;7.47;6.07;;;;;;;15.12;58.10;97681.16;4984834;28;20501;-80
2024/03/21 07:49:54;;;;;;;8.10;6.40;;;;;;;15.25;57.05;97688.50;4990160;28;20091;-80
2024/03/21 07:52:20;;;;;;;7.10;5.50;;;;;;;15.36;57.56;97697.94;4981829;28;20385;-80
2024/03/21 07:54:45;;;;;;;7.53;5.90;;;;;;;15.61;55.57;97691.13;4987563;28;20029;-80
2024/03/21 07:57:11;;;;;;;7.68;5.53;;;;;;;15.49;56.47;97691.41;5003731;28;20025;-80
2024/03/21 07:59:36;;;;;;;7.65;5.50;;;;;;;15.46;56.41;97696.38;4990346;28;20041;-80
2024/03/21 08:02:02;;;;;;;6.97;5.20;;;;;;;15.47;55.84;97704.00;4974411;28;20303;-80
2024/03/21 08:04:28;;;;;;;6.65;5.20;;;;;;;15.50;55.77;97695.56;5001054;28;20044;-80
2024/03/21 08:06:55;;;;;;;5.95;4.28;;;;;;;15.59;56.17;97695.06;4985061;28;20030;-80
2024/03/21 08:09:23;;;;;;;5.47;4.38;;;;;;;15.68;56.48;97698.75;4990199;28;20201;-80
2024/03/21 08:11:48;;;;;;;4.43;3.97;;;;;;;15.78;55.38;97705.81;4989399;28;20037;-80
2024/03/21 08:14:13;;;;;;;6.78;4.70;;;;;;;15.89;54.83;97710.81;4990414;28;20071;-80
2024/03/21 08:16:46;;;;;;;6.43;5.10;;;;;;;15.97;55.02;97706.06;5066346;28;20433;-80
2024/03/21 08:19:11;;;;;;;6.22;4.85;;;;;;;16.31;53.76;97715.97;5023646;28;20060;-80
2024/03/21 08:21:37;;;;;;;7.10;5.20;;;;;;;16.42;53.91;97717.50;5056201;28;20033;-80
2024/03/21 08:24:02;;;;;;;6.78;4.85;;;;;;;16.71;53.22;97706.31;5056999;28;20032;-80
2024/03/21 08:26:27;;;;;;;7.50;4.97;;;;;;;17.08;52.09;97708.50;5041544;28;20518;-80
2024/03/21 08:28:53;;;;;;;7.20;5.07;;;;;;;17.35;51.35;97715.97;5041891;28;20374;-80
2024/03/21 08:31:18;;;;;;;7.72;5.60;;;;;;;17.52;51.06;97709.53;5052960;28;20112;-80
2024/03/21 08:33:44;;;;;;;9.23;6.00;;;;;;;17.83;49.88;97715.31;5046508;28;20076;-80
2024/03/21 08:36:09;;;;;;;6.22;5.60;;;;;;;17.84;50.08;97711.63;5032630;28;20028;-88
2024/03/21 08:38:35;;;;;;;7.47;6.68;;;;;;;18.14;49.76;97723.72;5037560;28;20036;-87
2024/03/21 08:41:00;;;;;;;12.15;9.40;;;;;;;18.25;49.26;97720.97;5056139;28;20067;-85
2024/03/21 08:43:25;;;;;;;12.40;9.70;;;;;;;18.33;49.52;97736.97;5049834;28;20092;-86
2024/03/21 08:45:52;;;;;;;16.58;10.98;;;;;;;18.42;49.25;97728.44;5021368;28;20059;-85
2024/03/21 08:48:18;;;;;;;18.33;11.70;;;;;;;18.49;48.44;97723.59;5040124;28;20040;-79
2024/03/21 08:50:47;;;;;;;17.17;11.63;;;;;;;18.50;49.32;97728.59;5047130;28;20030;-85
2024/03/21 08:53:16;;;;;;;15.40;11.88;;;;;;;18.81;49.12;97740.63;5036869;28;20444;-87
2024/03/21 08:55:42;;;;;;;18.58;13.18;;;;;;;18.89;48.70;97747.94;5027103;28;20447;-85
2024/03/21 08:58:07;;;;;;;18.83;13.95;;;;;;;18.83;48.87;97743.78;5047380;28;20393;-79
2024/03/21 09:00:33;;;;;;;19.30;13.55;;;;;;;18.95;49.62;97756.56;5037487;28;20509;-80
2024/03/21 09:03:01;;;;;;;19.70;14.82;;;;;;;19.25;48.15;97761.41;5050498;28;20041;-78
2024/03/21 09:05:27;;;;;;;20.92;14.80;;;;;;;19.41;47.22;97753.28;5018451;28;20029;-79
2024/03/21 09:07:53;;;;;;;22.48;16.55;;;;;;;19.51;46.94;97754.97;5020561;28;20182;-78
2024/03/21 09:10:18;;;;;;;23.98;15.98;;;;;;;19.52;46.33;97759.97;5019196;28;20516;-79
2024/03/21 09:12:44;;;;;;;20.73;14.93;;;;;;;19.50;46.71;97759.50;5016499;28;20041;-78
2024/03/21 09:15:15;;;;;;;21.52;15.75;;;;;;;19.61;47.13;97763.53;5030892;28;20075;-79
2024/03/21 09:17:41;;;;;;;22.52;16.52;;;;;;;19.64;46.27;97768.22;5029567;28;20040;-78
2024/03/21 09:20:07;;;;;;;20.77;16.23;;;;;;;19.72;46.38;97771.28;5049180;28;20028;-79
2024/03/21 09:22:34;;;;;;;22.95;16.70;;;;;;;19.76;45.77;97770.47;5048423;28;20029;-79
2024/03/21 09:24:59;;;;;;;21.65;16.35;;;;;;;19.83;46.29;97770.88;5049682;28;20032;-79
2024/03/21 09:27:24;;;;;;;21.90;16.88;;;;;;;19.85;46.08;97775.84;5038750;28;20524;-79
2024/03/21 09:29:50;;;;;;;19.38;14.80;;;;;;;19.90;46.04;97764.44;5024093;28;20042;-80
2024/03/21 09:32:15;;;;;;;22.95;17.25;;;;;;;19.86;46.51;97774.00;5030085;28;20432;-79
2024/03/21 09:34:42;;;;;;;19.17;15.50;;;;;;;20.08;46.28;97768.06;5032574;28;20076;-79
2024/03/21 09:37:07;;;;;;;21.95;16.92;;;;;;;20.11;45.18;97756.91;5024641;28;20029;-80
2024/03/21 09:39:32;;;;;;;22.65;16.15;;;;;;;20.17;45.64;97776.91;5006013;28;20408;-78
2024/03/21 09:41:58;;;;;;;19.17;14.88;;;;;;;20.31;45.13;97775.06;5022526;28;20041;-79
2024/03/21 09:44:24;;;;;;;18.48;13.65;;;;;;;20.19;45.95;97777.41;5013406;28;20117;-87
2024/03/21 09:46:50;;;;;;;19.23;14.73;;;;;;;20.36;45.97;97780.25;5043310;28;20028;-86
2024/03/21 09:49:16;;;;;;;17.40;13.38;;;;;;;20.12;46.50;97772.50;5028859;28;20040;-85
2024/03/21 09:51:42;;;;;;;17.92;14.38;;;;;;;20.24;45.93;97774.66;5035965;28;20381;-87
2024/03/21 09:54:11;;;;;;;19.83;15.52;;;;;;;20.34;45.35;97787.69;5041124;28;20485;-89
2024/03/21 09:56:37;;;;;;;18.48;13.90;;;;;;;20.38;45.42;97772.81;5043745;28;20041;-87
2024/03/21 09:59:10;;;;;;;19.00;14.90;;;;;;;20.59;45.80;97765.25;5044782;28;20036;-86
2024/03/21 10:01:35;;;;;;;16.40;12.70;;;;;;;20.66;45.09;97772.81;5018530;28;20113;-87
2024/03/21 10:04:01;;;;;;;19.10;15.82;;;;;;;20.87;44.60;97780.34;5038711;28;20044;-82
2024/03/21 10:06:26;;;;;;;22.77;16.50;;;;;;;20.47;44.99;97788.00;5007946;28;20133;-86
2024/03/21 10:08:52;;;;;;;23.08;16.90;;;;;;;20.58;45.21;97795.44;5007433;28;20029;-85
2024/03/21 10:11:18;;;;;;;21.75;18.30;;;;;;;20.27;45.79;97802.38;5008593;28;20040;-85
2024/03/21 10:13:44;;;;;;;23.52;17.80;;;;;;;20.56;45.62;97794.16;5018710;28;20563;-86
2024/03/21 10:16:13;;;;;;;23.15;17.67;;;;;;;20.70;45.77;97799.47;5012017;28;20028;-84
2024/03/21 10:18:39;;;;;;;25.00;19.27;;;;;;;20.75;45.30;97784.31;5030276;28;20045;-86
2024/03/21 10:21:13;;;;;;;24.42;18.63;;;;;;;20.93;45.35;97801.13;5043867;28;20412;-82
2024/03/21 10:23:38;;;;;;;22.95;17.70;;;;;;;21.19;43.73;97799.81;5017470;28;20041;-83
2024/03/21 10:26:04;;;;;;;22.52;17.80;;;;;;;21.39;42.73;97785.34;5009353;28;20025;-87
2024/03/21 10:28:29;;;;;;;25.48;19.23;;;;;;;21.36;43.39;97794.66;5007229;28;20025;-85
2024/03/21 10:30:55;;;;;;;26.17;18.67;;;;;;;21.30;42.66;97794.00;5008435;28;20547;-83
2024/03/21 10:33:21;;;;;;;24.88;18.67;;;;;;;21.32;43.27;97791.06;5007283;28;20429;-85
2024/03/21 10:35:47;;;;;;;28.25;20.80;;;;;;;20.85;44.86;97793.88;5024696;28;20032;-84
2024/03/21 10:38:15;;;;;;;26.88;19.65;;;;;;;21.05;44.90;97792.69;5025106;28;20485;-84
2024/03/21 10:40:47;;;;;;;26.65;19.95;;;;;;;21.21;45.70;97810.88;5044526;28;20087;-78
2024/03/21 10:43:14;;;;;;;29.58;21.02;;;;;;;20.69;44.31;97811.16;5011574;28;20059;-80
2024/03/21 10:45:41;;;;;;;28.75;21.80;;;;;;;20.08;44.95;97807.72;5031564;28;20520;-79
2024/03/21 10:48:30;;;;;;;28.23;22.23;;;;;;;20.14;44.76;97811.88;5024827;28;20036;-79
2024/03/21 10:50:56;;;;;;;27.65;19.63;;;;;;;19.79;45.09;97814.00;5012317;28;20041;-78
2024/03/21 10:53:22;;;;;;;28.77;21.48;;;;;;;19.88;46.38;97814.94;5020802;28;20051;-79
2024/03/21 10:55:52;;;;;;;25.48;18.92;;;;;;;20.42;44.71;97825.13;5040557;28;20067;-84
2024/03/21 10:58:19;;;;;;;23.75;18.70;;;;;;;20.08;45.39;97828.88;5005460;28;20038;-82
2024/03/21 11:00:53;;;;;;;24.27;18.17;;;;;;;20.16;44.05;97825.56;5018316;28;20046;-85
2024/03/21 11:03:19;;;;;;;25.50;18.83;;;;;;;20.08;44.15;97815.66;5020005;28;20540;-82
2024/03/21 11:05:49;;;;;;;21.08;16.52;;;;;;;20.18;41.31;97829.47;5015341;28;20555;-85
2024/03/21 11:08:26;;;;;;;18.88;15.10;;;;;;;20.94;40.27;97823.88;5013051;28;20036;-84
2024/03/21 11:10:54;;;;;;;21.33;14.93;;;;;;;21.06;40.62;97831.31;4999227;28;20273;-84
2024/03/21 11:13:19;;;;;;;20.23;15.95;;;;;;;21.09;39.75;97830.72;5009287;28;20041;-84
2024/03/21 11:15:45;;;;;;;19.92;15.82;;;;;;;21.12;38.05;97824.81;5026093;28;20572;-79
2024/03/21 11:18:10;;;;;;;20.42;16.20;;;;;;;20.49;38.32;97836.09;5017675;28;20097;-79
2024/03/21 11:20:35;;;;;;;18.35;15.02;;;;;;;20.42;38.14;97848.94;5036997;28;20090;-80
2024/03/21 11:23:01;;;;;;;19.20;13.98;;;;;;;20.44;37.71;97844.13;5018713;28;20041;-80
2024/03/21 11:25:26;;;;;;;15.50;12.57;;;;;;;20.73;37.60;97839.41;5020141;28;20124;-78
2024/03/21 11:27:53;;;;;;;14.07;11.10;;;;;;;21.07;35.29;97826.81;5003502;28;20033;-79